createdAt,value
2019-05-12T01:43:13.665Z,3.63
2019-05-12T01:45:40.556Z,3.90
2019-05-12T01:48:08.721Z,3.50
2019-05-12T01:50:38.328Z,4.30
2019-05-12T01:53:05.016Z,4.33
2019-05-12T01:55:32.030Z,3.90
2019-05-12T01:57:58.839Z,3.80
2019-05-12T02:00:28.275Z,4.20
2019-05-12T02:02:54.694Z,4.00
2019-05-12T02:05:21.736Z,4.10
2019-05-12T02:07:51.089Z,4.13
2019-05-12T02:10:18.361Z,3.83
2019-05-12T02:12:45.172Z,3.77
2019-05-12T02:15:12.586Z,3.90
2019-05-12T02:17:39.386Z,3.57
2019-05-12T02:20:07.740Z,4.37
2019-05-12T02:22:34.919Z,3.77
2019-05-12T02:25:01.790Z,4.47
2019-05-12T02:27:28.934Z,3.57
2019-05-12T02:29:58.469Z,4.27
2019-05-12T02:32:31.903Z,4.33
2019-05-12T02:34:54.802Z,4.40
2019-05-12T02:37:21.803Z,4.40
2019-05-12T02:39:48.577Z,4.40
2019-05-12T02:42:15.729Z,4.47
2019-05-12T02:44:44.317Z,3.63
2019-05-12T02:47:11.735Z,4.07
2019-05-12T02:49:38.518Z,4.67
2019-05-12T02:52:05.484Z,3.60
2019-05-12T02:54:50.742Z,3.83
2019-05-12T02:57:04.286Z,4.47
2019-05-12T02:59:35.011Z,3.90
2019-05-12T03:02:05.273Z,3.67
2019-05-12T03:04:34.956Z,4.00
2019-05-12T03:07:06.360Z,3.90
2019-05-12T03:09:34.869Z,3.90
2019-05-12T03:12:00.688Z,4.17
2019-05-12T03:14:27.478Z,3.90
2019-05-12T03:16:54.257Z,4.20
2019-05-12T03:19:21.046Z,4.33
2019-05-12T03:21:47.817Z,4.87
2019-05-12T03:24:17.549Z,4.00
2019-05-12T03:26:45.034Z,3.70
2019-05-12T03:29:14.540Z,3.97
2019-05-12T03:31:41.468Z,4.23
2019-05-12T03:34:11.355Z,4.40
2019-05-12T03:36:41.990Z,4.03
2019-05-12T03:39:07.941Z,3.90
2019-05-12T03:41:34.976Z,3.50
2019-05-12T03:44:24.998Z,4.13
2019-05-12T03:46:50.698Z,4.20
2019-05-12T03:49:17.508Z,4.10
2019-05-12T03:51:45.677Z,3.83
2019-05-12T03:54:15.302Z,3.90
2019-05-12T03:56:44.271Z,4.50
2019-05-12T03:59:10.123Z,4.87
2019-05-12T04:01:37.092Z,5.03
2019-05-12T04:04:05.105Z,3.80
2019-05-12T04:06:34.583Z,4.30
2019-05-12T04:09:01.024Z,4.20
2019-05-12T04:11:27.820Z,4.07
2019-05-12T04:13:55.180Z,4.03
2019-05-12T04:16:24.721Z,4.53
2019-05-12T04:18:50.766Z,4.67
2019-05-12T04:21:18.528Z,4.37
2019-05-12T04:23:45.304Z,4.70
2019-05-12T04:26:16.752Z,4.17
2019-05-12T04:28:40.839Z,4.77
2019-05-12T04:31:07.867Z,4.77
2019-05-12T04:33:35.825Z,5.03
2019-05-12T04:36:05.576Z,4.77
2019-05-12T04:38:35.244Z,4.67
2019-05-12T04:41:00.463Z,4.20
2019-05-12T04:43:27.466Z,4.77
2019-05-12T04:45:54.876Z,4.90
2019-05-12T04:48:25.415Z,5.03
2019-05-12T04:50:50.860Z,5.07
2019-05-12T04:53:17.631Z,4.77
2019-05-12T04:55:44.875Z,4.47
2019-05-12T04:58:15.215Z,4.47
2019-05-12T05:00:40.774Z,4.20
2019-05-12T05:03:07.537Z,5.10
2019-05-12T05:05:35.315Z,4.50
2019-05-12T05:08:04.341Z,4.70
2019-05-12T05:10:34.087Z,4.20
2019-05-12T05:13:00.294Z,4.03
2019-05-12T05:15:27.079Z,4.43
2019-05-12T05:17:54.604Z,4.20
2019-05-12T05:20:23.804Z,4.20
2019-05-12T05:22:50.239Z,4.07
2019-05-12T05:25:17.038Z,3.40
2019-05-12T05:27:44.517Z,4.07
2019-05-12T05:30:13.868Z,3.77
2019-05-12T05:32:40.585Z,3.60
2019-05-12T05:35:08.680Z,3.73
2019-05-12T05:37:40.164Z,4.13
2019-05-12T05:40:04.298Z,3.53
2019-05-12T05:42:33.357Z,3.33
2019-05-12T05:45:00.242Z,3.30
2019-05-12T05:47:28.651Z,3.60
2019-05-12T05:49:55.725Z,3.47
2019-05-12T05:52:24.645Z,3.10
2019-05-12T05:54:53.217Z,3.40
2019-05-12T05:57:24.929Z,3.50
2019-05-12T05:59:48.769Z,3.57
2019-05-12T06:02:15.552Z,3.30
2019-05-12T06:04:45.574Z,3.03
2019-05-12T06:07:11.013Z,2.93
2019-05-12T06:09:37.882Z,3.43
2019-05-12T06:12:09.728Z,3.70
2019-05-12T06:14:34.229Z,3.43
2019-05-12T06:17:01.468Z,3.33
2019-05-12T06:19:28.247Z,3.70
2019-05-12T06:21:55.026Z,4.30
2019-05-12T06:24:23.783Z,5.13
2019-05-12T06:26:57.675Z,6.63
2019-05-12T06:29:20.705Z,3.60
2019-05-12T06:31:47.857Z,3.40
2019-05-12T06:34:20.606Z,3.23
2019-05-12T06:36:44.141Z,3.33
2019-05-12T06:39:19.020Z,2.90
2019-05-12T06:41:39.802Z,2.70
2019-05-12T06:44:08.715Z,2.70
2019-05-12T06:46:35.518Z,3.23
2019-05-12T06:49:10.169Z,2.73
2019-05-12T06:51:30.961Z,3.03
2019-05-12T06:54:00.866Z,2.80
2019-05-12T06:56:26.504Z,2.90
2019-05-12T06:58:53.534Z,2.50
2019-05-12T07:01:20.790Z,3.23
2019-05-12T07:03:47.554Z,2.93
2019-05-12T07:06:19.683Z,2.87
2019-05-12T07:08:43.830Z,3.60
2019-05-12T07:11:10.882Z,3.00
2019-05-12T07:13:37.688Z,2.90
2019-05-12T07:16:16.645Z,2.83
2019-05-12T07:18:44.467Z,2.43
2019-05-12T07:21:16.900Z,2.90
2019-05-12T07:23:40.076Z,2.97
2019-05-12T07:26:17.558Z,2.70
2019-05-12T07:28:40.189Z,2.80
2019-05-12T07:31:04.524Z,2.83
2019-05-12T07:33:32.886Z,2.47
2019-05-12T07:36:04.136Z,2.50
2019-05-12T07:38:31.357Z,2.37
2019-05-12T07:41:00.855Z,2.57
2019-05-12T07:43:28.029Z,2.43
2019-05-12T07:46:02.177Z,2.07
2019-05-12T07:48:25.402Z,2.50
2019-05-12T07:50:56.392Z,2.03
2019-05-12T07:53:23.246Z,2.03
2019-05-12T07:55:49.869Z,2.57
2019-05-12T07:58:19.160Z,2.43
2019-05-12T08:00:45.666Z,2.80
2019-05-12T08:03:20.980Z,2.17
2019-05-12T08:05:43.776Z,2.10
2019-05-12T08:08:11.011Z,2.40
2019-05-12T08:10:38.270Z,2.03
2019-05-12T08:13:05.067Z,2.20
2019-05-12T08:15:33.896Z,2.40
2019-05-12T08:18:01.129Z,2.67
2019-05-12T08:20:27.979Z,2.57
2019-05-12T08:22:59.510Z,2.20
2019-05-12T08:25:24.828Z,2.00
2019-05-12T08:28:04.157Z,2.20
2019-05-12T08:30:30.955Z,3.03
2019-05-12T08:33:03.865Z,2.20
2019-05-12T08:35:33.128Z,2.07
2019-05-12T08:37:55.568Z,2.63
2019-05-12T08:40:24.709Z,1.70
2019-05-12T08:42:53.870Z,2.07
2019-05-12T08:45:25.673Z,2.50
2019-05-12T08:47:49.113Z,2.73
2019-05-12T08:50:16.011Z,1.97
2019-05-12T08:52:44.292Z,2.00
2019-05-12T08:55:14.713Z,2.37
2019-05-12T08:57:46.493Z,2.30
2019-05-12T09:00:10.298Z,2.50
2019-05-12T09:02:39.912Z,2.30
2019-05-12T09:05:06.241Z,2.30
2019-05-12T09:07:35.786Z,1.80
2019-05-12T09:10:04.120Z,2.00
2019-05-12T09:12:31.066Z,1.87
2019-05-12T09:14:57.864Z,2.08
2019-05-12T09:17:24.679Z,1.87
2019-05-12T09:19:54.997Z,2.15
2019-05-12T09:22:20.831Z,2.50
2019-05-12T09:24:48.095Z,1.77
2019-05-12T09:27:15.293Z,2.27
2019-05-12T09:29:43.560Z,2.08
2019-05-12T09:32:10.736Z,2.42
2019-05-12T09:34:38.100Z,2.22
2019-05-12T09:37:05.000Z,2.45
2019-05-12T09:39:34.163Z,2.55
2019-05-12T09:42:00.792Z,2.25
2019-05-12T09:44:30.428Z,2.33
2019-05-12T09:46:56.770Z,2.10
2019-05-12T09:49:31.318Z,2.05
2019-05-12T09:51:54.414Z,1.90
2019-05-12T09:54:26.196Z,1.80
2019-05-12T09:56:55.389Z,1.82
2019-05-12T09:59:23.133Z,2.08
2019-05-12T10:01:49.612Z,2.27
2019-05-12T10:04:19.541Z,2.47
2019-05-12T10:06:46.107Z,2.10
2019-05-12T10:09:15.609Z,2.02
2019-05-12T10:11:44.865Z,2.08
2019-05-12T10:14:14.001Z,1.98
2019-05-12T10:16:45.618Z,2.00
2019-05-12T10:19:10.647Z,2.15
2019-05-12T10:21:37.726Z,1.80
2019-05-12T10:24:05.122Z,2.25
2019-05-12T10:26:34.406Z,2.00
2019-05-12T10:29:14.230Z,1.90
2019-05-12T10:31:35.643Z,1.85
2019-05-12T10:34:18.048Z,2.40
2019-05-12T10:36:49.033Z,2.40
2019-05-12T10:39:16.177Z,2.10
2019-05-12T10:41:43.669Z,2.05
2019-05-12T10:44:10.699Z,1.70
2019-05-12T10:46:37.506Z,2.25
2019-05-12T10:49:04.317Z,2.40
2019-05-12T10:51:31.177Z,2.30
2019-05-12T10:54:05.979Z,2.22
2019-05-12T10:56:26.952Z,1.70
2019-05-12T10:58:54.230Z,2.47
2019-05-12T11:01:21.264Z,2.50
2019-05-12T11:03:50.983Z,2.20
2019-05-12T11:06:16.903Z,2.27
2019-05-12T11:08:49.577Z,2.07
2019-05-12T11:11:13.655Z,1.90
2019-05-12T11:13:46.199Z,1.80
2019-05-12T11:16:09.517Z,1.90
2019-05-12T11:18:36.335Z,1.93
2019-05-12T11:21:03.731Z,2.10
2019-05-12T11:23:30.585Z,1.80
2019-05-12T11:25:57.610Z,1.60
2019-05-12T11:28:24.587Z,2.10
2019-05-12T11:30:51.667Z,2.05
2019-05-12T11:33:18.561Z,1.85
2019-05-12T11:35:45.879Z,1.92
2019-05-12T11:38:13.420Z,2.30
2019-05-12T11:40:40.432Z,1.70
2019-05-12T11:43:07.367Z,1.70
2019-05-12T11:45:34.464Z,1.60
2019-05-12T11:48:07.990Z,1.70
2019-05-12T11:50:30.319Z,1.75
2019-05-12T11:52:57.170Z,1.92
2019-05-12T11:55:29.910Z,1.30
2019-05-12T11:57:54.438Z,2.17
2019-05-12T12:00:24.177Z,1.60
2019-05-12T12:02:51.375Z,1.32
2019-05-12T12:05:18.600Z,1.57
2019-05-12T12:07:51.246Z,1.62
2019-05-12T12:10:14.562Z,1.80
2019-05-12T12:12:47.181Z,1.90
2019-05-12T12:15:10.657Z,1.62
2019-05-12T12:17:37.484Z,1.42
2019-05-12T12:20:04.934Z,1.60
2019-05-12T12:22:43.446Z,1.40
2019-05-12T12:25:13.084Z,1.70
2019-05-12T12:27:39.626Z,1.57
2019-05-12T12:30:18.580Z,1.60
2019-05-12T12:32:36.297Z,1.50
2019-05-12T12:35:07.127Z,1.77
2019-05-12T12:37:33.183Z,1.72
2019-05-12T12:40:00.482Z,1.67
2019-05-12T12:42:30.333Z,1.87
2019-05-12T12:44:58.673Z,1.22
2019-05-12T12:47:24.814Z,1.33
2019-05-12T12:49:51.614Z,1.37
2019-05-12T12:52:18.740Z,1.17
2019-05-12T12:54:45.635Z,1.40
2019-05-12T12:57:13.809Z,1.20
2019-05-12T12:59:45.060Z,1.20
2019-05-12T13:02:11.164Z,1.17
2019-05-12T13:04:39.709Z,1.40
2019-05-12T13:07:07.212Z,1.07
2019-05-12T13:09:34.673Z,1.17
2019-05-12T13:12:06.059Z,1.20
2019-05-12T13:14:34.608Z,0.80
2019-05-12T13:16:59.223Z,1.00
2019-05-12T13:19:26.047Z,1.20
2019-05-12T13:21:53.364Z,1.00
2019-05-12T13:24:20.414Z,1.35
2019-05-12T13:26:47.199Z,1.60
2019-05-12T13:29:14.286Z,1.52
2019-05-12T13:31:46.220Z,1.57
2019-05-12T13:34:09.874Z,1.00
2019-05-12T13:36:39.215Z,1.42
2019-05-12T13:39:11.464Z,0.98
2019-05-12T13:41:35.118Z,1.20
2019-05-12T13:44:03.918Z,1.20
2019-05-12T13:46:30.753Z,1.27
2019-05-12T13:48:59.625Z,1.22
2019-05-12T13:51:26.497Z,1.30
2019-05-12T13:53:53.358Z,1.00
2019-05-12T13:56:25.803Z,1.30
2019-05-12T13:58:49.143Z,1.20
2019-05-12T14:01:20.233Z,1.20
2019-05-12T14:03:49.194Z,1.25
2019-05-12T14:06:14.042Z,1.17
2019-05-12T14:08:40.958Z,1.10
2019-05-12T14:11:08.331Z,1.30
2019-05-12T14:13:35.461Z,1.07
2019-05-12T14:16:05.774Z,0.95
2019-05-12T14:18:33.073Z,1.17
2019-05-12T14:21:00.610Z,1.20
2019-05-12T14:23:27.538Z,0.80
2019-05-12T14:25:54.456Z,1.10
2019-05-12T14:28:23.397Z,0.93
2019-05-12T14:30:52.193Z,1.00
2019-05-12T14:33:19.285Z,1.07
2019-05-12T14:35:46.152Z,1.37
2019-05-12T14:38:14.187Z,1.15
2019-05-12T14:40:42.336Z,1.02
2019-05-12T14:43:10.435Z,1.00
2019-05-12T14:45:38.108Z,1.20
2019-05-12T14:48:08.977Z,0.90
2019-05-12T14:50:34.071Z,1.30
2019-05-12T14:53:00.949Z,1.35
2019-05-12T14:55:28.267Z,0.82
2019-05-12T14:57:55.088Z,1.20
2019-05-12T15:00:24.070Z,1.10
2019-05-12T15:02:50.706Z,0.97
2019-05-12T15:05:17.506Z,0.93
2019-05-12T15:07:51.140Z,0.97
2019-05-12T15:10:14.266Z,0.80
2019-05-12T15:12:43.866Z,1.00
2019-05-12T15:15:15.642Z,1.15
2019-05-12T15:17:39.704Z,1.00
2019-05-12T15:20:10.619Z,1.40
2019-05-12T15:22:36.082Z,1.30
2019-05-12T15:25:05.534Z,1.05
2019-05-12T15:27:42.383Z,1.02
2019-05-12T15:30:01.087Z,1.22
2019-05-12T15:32:28.909Z,1.37
2019-05-12T15:34:56.153Z,1.50
2019-05-12T15:37:23.755Z,1.27
2019-05-12T15:39:53.329Z,1.20
2019-05-12T15:42:20.052Z,1.33
2019-05-12T15:44:47.425Z,1.30
2019-05-12T15:47:14.390Z,1.40
2019-05-12T15:49:41.189Z,1.20
2019-05-12T15:52:08.235Z,1.30
2019-05-12T15:54:36.296Z,1.30
2019-05-12T15:57:04.228Z,1.20
2019-05-12T15:59:34.484Z,1.20
2019-05-12T16:02:11.805Z,1.37
2019-05-12T16:04:34.592Z,1.20
2019-05-12T16:06:59.116Z,1.20
2019-05-12T16:09:26.004Z,1.20
2019-05-12T16:11:52.800Z,1.17
2019-05-12T16:14:19.603Z,1.10
2019-05-12T16:16:47.153Z,1.30
2019-05-12T16:19:14.769Z,1.17
2019-05-12T16:21:45.341Z,1.37
2019-05-12T16:24:11.285Z,1.40
2019-05-12T16:26:45.356Z,1.40
2019-05-12T16:29:07.905Z,1.37
2019-05-12T16:31:39.586Z,1.20
2019-05-12T16:34:05.942Z,1.33
2019-05-12T16:36:33.761Z,1.10
2019-05-12T16:39:07.678Z,1.23
2019-05-12T16:41:34.746Z,1.20
2019-05-12T16:44:07.765Z,1.43
2019-05-12T16:46:31.324Z,1.30
2019-05-12T16:48:58.581Z,1.00
2019-05-12T16:51:25.451Z,1.37
2019-05-12T16:53:54.012Z,1.10
2019-05-12T16:56:27.969Z,1.10
2019-05-12T16:58:49.793Z,1.13
2019-05-12T17:01:19.423Z,1.33
2019-05-12T17:03:45.432Z,1.30
2019-05-12T17:06:36.782Z,1.17
2019-05-12T17:09:03.210Z,1.10
2019-05-12T17:11:31.345Z,1.30
2019-05-12T17:14:02.184Z,1.30
2019-05-12T17:16:27.531Z,1.07
2019-05-12T17:18:54.515Z,1.40
2019-05-12T17:21:21.348Z,1.57
2019-05-12T17:23:48.413Z,1.40
2019-05-12T17:26:15.444Z,1.37
2019-05-12T17:28:43.609Z,1.33
2019-05-12T17:31:10.653Z,1.03
2019-05-12T17:33:39.349Z,1.23
2019-05-12T17:36:28.551Z,1.10
2019-05-12T17:38:56.537Z,1.20
2019-05-12T17:41:24.603Z,1.20
2019-05-12T17:43:59.561Z,0.97
2019-05-12T17:46:20.462Z,1.20
2019-05-12T17:48:47.339Z,1.23
2019-05-12T17:51:14.705Z,1.70
2019-05-12T17:53:43.366Z,1.60
2019-05-12T17:56:10.441Z,1.50
2019-05-12T17:58:44.197Z,1.10
2019-05-12T18:01:07.140Z,1.23
2019-05-12T18:03:34.319Z,1.50
2019-05-12T18:06:03.564Z,1.60
2019-05-12T18:08:38.141Z,1.53
2019-05-12T18:10:59.205Z,1.40
2019-05-12T18:13:28.157Z,1.43
2019-05-12T18:15:55.026Z,1.70
2019-05-12T18:18:24.242Z,1.53
2019-05-12T18:20:50.878Z,1.40
2019-05-12T18:23:19.713Z,1.90
2019-05-12T18:25:46.652Z,1.70
2019-05-12T18:28:14.142Z,1.47
2019-05-12T18:30:41.126Z,1.50
2019-05-12T18:33:09.554Z,1.60
2019-05-12T18:35:36.544Z,1.30
2019-05-12T18:38:07.891Z,1.47
2019-05-12T18:40:34.162Z,1.47
2019-05-12T18:43:03.790Z,1.67
2019-05-12T18:45:30.391Z,1.70
2019-05-12T18:47:57.404Z,1.40
2019-05-12T18:50:27.079Z,1.90
2019-05-12T18:52:53.722Z,2.30
2019-05-12T18:55:20.604Z,1.97
2019-05-12T18:57:49.905Z,1.97
2019-05-12T19:00:21.280Z,1.60
2019-05-12T19:06:14.073Z,1.30
2019-05-12T19:08:41.181Z,2.13
2019-05-12T19:11:18.817Z,1.60
2019-05-12T19:13:43.133Z,1.60
2019-05-12T19:16:07.308Z,1.20
2019-05-12T19:18:37.279Z,1.30
2019-05-12T19:21:04.626Z,1.43
2019-05-12T19:23:35.165Z,1.40
2019-05-12T19:26:00.722Z,1.50
2019-05-12T19:28:27.848Z,1.70
2019-05-12T19:31:00.822Z,1.63
2019-05-12T19:33:24.319Z,1.30
2019-05-12T19:35:59.759Z,1.70
2019-05-12T19:38:20.061Z,1.60
2019-05-12T19:40:55.023Z,1.47
2019-05-12T19:43:15.920Z,1.87
2019-05-12T19:45:43.540Z,1.30
2019-05-12T19:48:23.119Z,1.50
2019-05-12T19:50:44.458Z,1.20
2019-05-12T19:53:10.436Z,1.70
2019-05-12T19:55:37.787Z,1.37
2019-05-12T19:58:11.224Z,1.60
2019-05-12T20:00:33.673Z,1.70
2019-05-12T20:03:00.625Z,1.57
2019-05-12T20:05:27.442Z,2.23
2019-05-12T20:07:54.285Z,1.70
2019-05-12T20:10:24.154Z,1.60
2019-05-12T20:12:54.685Z,1.50
2019-05-12T20:15:19.114Z,1.80
2019-05-12T20:17:48.750Z,1.93
2019-05-12T20:20:17.864Z,1.80
2019-05-12T20:22:44.212Z,2.13
2019-05-12T20:25:11.257Z,1.77
2019-05-12T20:27:38.054Z,1.40
2019-05-12T20:30:08.814Z,1.63
2019-05-12T20:32:34.493Z,1.53
2019-05-12T20:35:04.084Z,1.60
2019-05-12T20:37:30.465Z,1.63
2019-05-12T20:40:02.132Z,1.60
2019-05-12T20:42:33.976Z,1.70
2019-05-12T20:45:02.407Z,1.83
2019-05-12T20:47:26.405Z,2.20
2019-05-12T20:49:53.312Z,2.30
2019-05-12T20:52:20.465Z,2.27
2019-05-12T20:54:49.090Z,2.13
2019-05-12T20:57:16.445Z,2.07
2019-05-12T20:59:44.531Z,2.10
2019-05-12T21:02:14.003Z,1.93
2019-05-12T21:04:41.255Z,1.93
2019-05-12T21:07:08.292Z,1.97
2019-05-12T21:09:35.124Z,2.00
2019-05-12T21:12:02.513Z,2.17
2019-05-12T21:14:29.677Z,2.00
2019-05-12T21:16:56.478Z,2.00
2019-05-12T21:19:24.237Z,2.10
2019-05-12T21:21:52.719Z,2.27
2019-05-12T21:24:19.550Z,2.30
2019-05-12T21:26:46.356Z,2.30
2019-05-12T21:29:13.709Z,2.50
2019-05-12T21:31:40.772Z,1.97
2019-05-12T21:34:13.095Z,2.00
2019-05-12T21:36:36.789Z,2.43
2019-05-12T21:39:10.275Z,2.00
2019-05-12T21:41:40.662Z,2.67
2019-05-12T21:44:06.712Z,2.60
2019-05-12T21:46:38.100Z,2.50
2019-05-12T21:49:10.339Z,2.20
2019-05-12T21:51:33.998Z,2.43
2019-05-12T21:54:00.968Z,2.60
2019-05-12T21:56:28.296Z,2.03
2019-05-12T21:58:58.188Z,1.90
2019-05-12T22:01:24.190Z,2.20
2019-05-12T22:03:58.067Z,2.40
2019-05-12T22:06:21.784Z,2.20
2019-05-12T22:08:55.382Z,2.10
2019-05-12T22:11:19.433Z,2.50
2019-05-12T22:13:54.914Z,2.77
2019-05-12T22:16:14.957Z,2.30
2019-05-12T22:18:43.756Z,2.23
2019-05-12T22:21:10.711Z,2.07
2019-05-12T22:23:42.674Z,2.30
2019-05-12T22:26:06.440Z,2.67
2019-05-12T22:28:34.158Z,2.20
2019-05-12T22:31:01.277Z,2.30
2019-05-12T22:33:28.128Z,2.23
2019-05-12T22:36:04.892Z,2.43
2019-05-12T22:38:36.878Z,2.40
2019-05-12T22:41:04.291Z,2.10
2019-05-12T22:43:36.385Z,1.87
2019-05-12T22:46:10.665Z,2.80
2019-05-12T22:48:40.595Z,2.00
2019-05-12T22:51:15.294Z,2.10
2019-05-12T22:53:35.264Z,3.00
2019-05-12T22:56:11.650Z,2.13
2019-05-12T22:58:33.622Z,1.80
2019-05-12T23:01:01.408Z,2.00
2019-05-12T23:03:30.057Z,2.10
2019-05-12T23:06:01.409Z,1.90
2019-05-12T23:08:25.568Z,1.53
2019-05-12T23:10:53.977Z,1.90
2019-05-12T23:13:23.685Z,1.60
2019-05-12T23:15:50.392Z,1.83
2019-05-12T23:18:19.476Z,1.77
2019-05-12T23:20:48.146Z,1.60
2019-05-12T23:23:18.688Z,1.60
2019-05-12T23:25:44.185Z,2.50
2019-05-12T23:28:11.179Z,1.80
2019-05-12T23:30:37.977Z,1.83
2019-05-12T23:33:04.785Z,1.63
2019-05-12T23:35:34.895Z,1.83
2019-05-12T23:38:00.640Z,2.03
2019-05-12T23:40:27.442Z,1.70
2019-05-12T23:42:54.426Z,1.97
2019-05-12T23:45:21.373Z,1.80
2019-05-12T23:47:48.406Z,2.10
2019-05-12T23:50:15.317Z,2.30
2019-05-12T23:52:44.225Z,2.20
2019-05-12T23:55:13.739Z,1.97
2019-05-12T23:57:40.421Z,1.90
